sensor_id;sensor_type;location;lat;lon;timestamp;P1;durP1;ratioP1;P2;durP2;ratioP2
37895;SDS011;23733;53.254;10.430;2023-04-03T00:02:15;6.47;;;3.47;;
37895;SDS011;23733;53.254;10.430;2023-04-03T00:04:41;11.43;;;3.00;;
37895;SDS011;23733;53.254;10.430;2023-04-03T00:07:08;7.43;;;2.73;;
37895;SDS011;23733;53.254;10.430;2023-04-03T00:09:34;9.83;;;2.70;;
37895;SDS011;23733;53.254;10.430;2023-04-03T00:12:01;7.30;;;2.53;;
37895;SDS011;23733;53.254;10.430;2023-04-03T00:14:27;10.13;;;2.47;;
37895;SDS011;23733;53.254;10.430;2023-04-03T00:16:53;4.80;;;2.17;;
37895;SDS011;23733;53.254;10.430;2023-04-03T00:19:19;5.50;;;1.87;;
37895;SDS011;23733;53.254;10.430;2023-04-03T00:21:46;6.57;;;2.27;;
37895;SDS011;23733;53.254;10.430;2023-04-03T00:24:12;5.03;;;2.47;;
37895;SDS011;23733;53.254;10.430;2023-04-03T00:26:38;7.17;;;2.17;;
37895;SDS011;23733;53.254;10.430;2023-04-03T00:29:05;7.37;;;2.30;;
37895;SDS011;23733;53.254;10.430;2023-04-03T00:31:31;6.87;;;2.20;;
37895;SDS011;23733;53.254;10.430;2023-04-03T00:33:58;6.47;;;2.13;;
37895;SDS011;23733;53.254;10.430;2023-04-03T00:36:24;10.17;;;2.40;;
37895;SDS011;23733;53.254;10.430;2023-04-03T00:38:50;7.93;;;2.60;;
37895;SDS011;23733;53.254;10.430;2023-04-03T00:41:16;7.30;;;2.40;;
37895;SDS011;23733;53.254;10.430;2023-04-03T00:43:43;6.43;;;2.27;;
37895;SDS011;23733;53.254;10.430;2023-04-03T00:46:10;4.63;;;2.50;;
37895;SDS011;23733;53.254;10.430;2023-04-03T00:51:03;10.23;;;3.50;;
37895;SDS011;23733;53.254;10.430;2023-04-03T00:53:35;4.20;;;2.30;;
37895;SDS011;23733;53.254;10.430;2023-04-03T00:56:06;6.43;;;2.37;;
37895;SDS011;23733;53.254;10.430;2023-04-03T00:58:40;6.50;;;2.33;;
37895;SDS011;23733;53.254;10.430;2023-04-03T01:01:15;7.07;;;2.33;;
37895;SDS011;23733;53.254;10.430;2023-04-03T01:03:43;7.33;;;2.57;;
37895;SDS011;23733;53.254;10.430;2023-04-03T01:06:09;8.67;;;2.33;;
37895;SDS011;23733;53.254;10.430;2023-04-03T01:08:36;4.40;;;2.20;;
37895;SDS011;23733;53.254;10.430;2023-04-03T01:11:02;5.00;;;2.40;;
37895;SDS011;23733;53.254;10.430;2023-04-03T01:13:29;5.53;;;2.67;;
37895;SDS011;23733;53.254;10.430;2023-04-03T01:15:57;6.03;;;2.23;;
37895;SDS011;23733;53.254;10.430;2023-04-03T01:18:26;5.73;;;2.37;;
37895;SDS011;23733;53.254;10.430;2023-04-03T01:21:02;7.07;;;2.53;;
37895;SDS011;23733;53.254;10.430;2023-04-03T01:23:57;8.53;;;2.17;;
37895;SDS011;23733;53.254;10.430;2023-04-03T01:26:34;6.17;;;2.80;;
37895;SDS011;23733;53.254;10.430;2023-04-03T01:29:01;10.53;;;2.67;;
37895;SDS011;23733;53.254;10.430;2023-04-03T01:31:29;6.17;;;2.50;;
37895;SDS011;23733;53.254;10.430;2023-04-03T01:33:56;10.40;;;3.00;;
37895;SDS011;23733;53.254;10.430;2023-04-03T01:36:24;7.70;;;2.30;;
37895;SDS011;23733;53.254;10.430;2023-04-03T01:38:51;6.60;;;2.90;;
37895;SDS011;23733;53.254;10.430;2023-04-03T01:41:18;8.30;;;2.70;;
37895;SDS011;23733;53.254;10.430;2023-04-03T01:43:46;6.90;;;2.70;;
37895;SDS011;23733;53.254;10.430;2023-04-03T01:46:13;10.20;;;2.57;;
37895;SDS011;23733;53.254;10.430;2023-04-03T01:48:39;4.40;;;2.10;;
37895;SDS011;23733;53.254;10.430;2023-04-03T01:51:06;8.93;;;2.57;;
37895;SDS011;23733;53.254;10.430;2023-04-03T01:53:32;12.97;;;3.40;;
37895;SDS011;23733;53.254;10.430;2023-04-03T01:55:58;6.00;;;2.20;;
37895;SDS011;23733;53.254;10.430;2023-04-03T01:58:26;8.10;;;2.00;;
37895;SDS011;23733;53.254;10.430;2023-04-03T02:00:52;5.53;;;2.10;;
37895;SDS011;23733;53.254;10.430;2023-04-03T02:03:19;4.37;;;1.97;;
37895;SDS011;23733;53.254;10.430;2023-04-03T02:05:45;6.97;;;2.23;;
37895;SDS011;23733;53.254;10.430;2023-04-03T02:08:11;6.63;;;2.00;;
37895;SDS011;23733;53.254;10.430;2023-04-03T02:10:38;9.27;;;1.90;;
37895;SDS011;23733;53.254;10.430;2023-04-03T02:13:04;6.37;;;2.10;;
37895;SDS011;23733;53.254;10.430;2023-04-03T02:15:31;3.13;;;1.77;;
37895;SDS011;23733;53.254;10.430;2023-04-03T02:17:57;5.70;;;2.20;;
37895;SDS011;23733;53.254;10.430;2023-04-03T02:20:23;5.90;;;2.20;;
37895;SDS011;23733;53.254;10.430;2023-04-03T02:22:49;8.47;;;2.20;;
37895;SDS011;23733;53.254;10.430;2023-04-03T02:25:15;5.90;;;2.00;;
37895;SDS011;23733;53.254;10.430;2023-04-03T02:27:43;7.83;;;1.80;;
37895;SDS011;23733;53.254;10.430;2023-04-03T02:30:09;6.70;;;2.80;;
37895;SDS011;23733;53.254;10.430;2023-04-03T02:32:36;10.07;;;2.43;;
37895;SDS011;23733;53.254;10.430;2023-04-03T02:35:02;5.50;;;1.73;;
37895;SDS011;23733;53.254;10.430;2023-04-03T02:37:28;6.23;;;2.00;;
37895;SDS011;23733;53.254;10.430;2023-04-03T02:39:54;4.67;;;1.83;;
37895;SDS011;23733;53.254;10.430;2023-04-03T02:42:20;3.97;;;1.93;;
37895;SDS011;23733;53.254;10.430;2023-04-03T02:44:46;5.10;;;2.10;;
37895;SDS011;23733;53.254;10.430;2023-04-03T02:47:12;5.17;;;2.07;;
37895;SDS011;23733;53.254;10.430;2023-04-03T02:49:38;7.40;;;1.97;;
37895;SDS011;23733;53.254;10.430;2023-04-03T02:52:04;5.37;;;1.73;;
37895;SDS011;23733;53.254;10.430;2023-04-03T02:54:30;6.43;;;2.30;;
37895;SDS011;23733;53.254;10.430;2023-04-03T02:56:56;6.17;;;2.70;;
37895;SDS011;23733;53.254;10.430;2023-04-03T02:59:23;7.27;;;2.70;;
37895;SDS011;23733;53.254;10.430;2023-04-03T03:01:49;4.90;;;1.90;;
37895;SDS011;23733;53.254;10.430;2023-04-03T03:04:15;9.00;;;2.40;;
37895;SDS011;23733;53.254;10.430;2023-04-03T03:06:41;5.80;;;2.30;;
37895;SDS011;23733;53.254;10.430;2023-04-03T03:09:07;6.47;;;2.37;;
37895;SDS011;23733;53.254;10.430;2023-04-03T03:11:33;6.93;;;2.13;;
37895;SDS011;23733;53.254;10.430;2023-04-03T03:13:59;5.43;;;2.40;;
37895;SDS011;23733;53.254;10.430;2023-04-03T03:16:25;4.57;;;2.10;;
37895;SDS011;23733;53.254;10.430;2023-04-03T03:18:52;5.53;;;2.47;;
37895;SDS011;23733;53.254;10.430;2023-04-03T03:21:18;5.70;;;2.30;;
37895;SDS011;23733;53.254;10.430;2023-04-03T03:23:44;6.13;;;2.33;;
37895;SDS011;23733;53.254;10.430;2023-04-03T03:26:10;9.63;;;2.20;;
37895;SDS011;23733;53.254;10.430;2023-04-03T03:28:36;3.97;;;2.27;;
37895;SDS011;23733;53.254;10.430;2023-04-03T03:31:04;9.77;;;2.70;;
37895;SDS011;23733;53.254;10.430;2023-04-03T03:33:31;5.90;;;2.63;;
37895;SDS011;23733;53.254;10.430;2023-04-03T03:35:57;7.03;;;2.90;;
37895;SDS011;23733;53.254;10.430;2023-04-03T03:38:25;8.50;;;2.77;;
37895;SDS011;23733;53.254;10.430;2023-04-03T03:40:51;7.63;;;2.80;;
37895;SDS011;23733;53.254;10.430;2023-04-03T03:43:18;6.13;;;2.90;;
37895;SDS011;23733;53.254;10.430;2023-04-03T03:45:44;5.87;;;2.83;;
37895;SDS011;23733;53.254;10.430;2023-04-03T03:48:11;8.53;;;2.63;;
37895;SDS011;23733;53.254;10.430;2023-04-03T03:50:37;6.93;;;2.40;;
37895;SDS011;23733;53.254;10.430;2023-04-03T03:53:03;6.73;;;2.63;;
37895;SDS011;23733;53.254;10.430;2023-04-03T03:55:29;17.57;;;3.30;;
37895;SDS011;23733;53.254;10.430;2023-04-03T03:57:55;6.07;;;3.00;;
37895;SDS011;23733;53.254;10.430;2023-04-03T04:00:21;7.57;;;2.80;;
37895;SDS011;23733;53.254;10.430;2023-04-03T04:02:47;8.27;;;2.40;;
37895;SDS011;23733;53.254;10.430;2023-04-03T04:05:13;6.97;;;2.77;;
37895;SDS011;23733;53.254;10.430;2023-04-03T04:07:40;5.27;;;2.70;;
37895;SDS011;23733;53.254;10.430;2023-04-03T04:10:06;5.93;;;2.80;;
37895;SDS011;23733;53.254;10.430;2023-04-03T04:12:32;7.50;;;2.67;;
37895;SDS011;23733;53.254;10.430;2023-04-03T04:14:58;5.57;;;2.60;;
37895;SDS011;23733;53.254;10.430;2023-04-03T04:17:24;9.80;;;2.93;;
37895;SDS011;23733;53.254;10.430;2023-04-03T04:19:50;6.03;;;3.03;;
37895;SDS011;23733;53.254;10.430;2023-04-03T04:22:16;6.97;;;2.80;;
37895;SDS011;23733;53.254;10.430;2023-04-03T04:24:42;5.43;;;2.87;;
37895;SDS011;23733;53.254;10.430;2023-04-03T04:27:08;9.53;;;3.30;;
37895;SDS011;23733;53.254;10.430;2023-04-03T04:29:35;8.03;;;3.10;;
37895;SDS011;23733;53.254;10.430;2023-04-03T04:32:03;8.67;;;3.37;;
37895;SDS011;23733;53.254;10.430;2023-04-03T04:34:29;8.40;;;3.43;;
37895;SDS011;23733;53.254;10.430;2023-04-03T04:36:55;8.10;;;2.73;;
37895;SDS011;23733;53.254;10.430;2023-04-03T04:39:21;8.70;;;2.90;;
37895;SDS011;23733;53.254;10.430;2023-04-03T04:41:48;10.70;;;3.00;;
37895;SDS011;23733;53.254;10.430;2023-04-03T04:44:14;8.40;;;2.90;;
37895;SDS011;23733;53.254;10.430;2023-04-03T04:46:41;13.87;;;3.10;;
37895;SDS011;23733;53.254;10.430;2023-04-03T04:49:07;9.23;;;2.90;;
37895;SDS011;23733;53.254;10.430;2023-04-03T04:51:33;7.70;;;2.90;;
37895;SDS011;23733;53.254;10.430;2023-04-03T04:53:59;5.33;;;2.80;;
37895;SDS011;23733;53.254;10.430;2023-04-03T04:56:25;9.87;;;3.20;;
37895;SDS011;23733;53.254;10.430;2023-04-03T04:58:52;8.27;;;3.03;;
37895;SDS011;23733;53.254;10.430;2023-04-03T05:01:18;7.33;;;3.07;;
37895;SDS011;23733;53.254;10.430;2023-04-03T05:03:44;6.43;;;3.47;;
37895;SDS011;23733;53.254;10.430;2023-04-03T05:06:10;6.80;;;3.53;;
37895;SDS011;23733;53.254;10.430;2023-04-03T05:08:36;7.63;;;3.40;;
37895;SDS011;23733;53.254;10.430;2023-04-03T05:11:02;11.03;;;5.20;;
37895;SDS011;23733;53.254;10.430;2023-04-03T05:13:29;12.37;;;5.50;;
37895;SDS011;23733;53.254;10.430;2023-04-03T05:15:55;15.07;;;7.07;;
37895;SDS011;23733;53.254;10.430;2023-04-03T05:18:21;14.37;;;6.87;;
37895;SDS011;23733;53.254;10.430;2023-04-03T05:20:50;14.13;;;6.90;;
37895;SDS011;23733;53.254;10.430;2023-04-03T05:23:16;11.97;;;5.73;;
37895;SDS011;23733;53.254;10.430;2023-04-03T05:25:43;10.57;;;5.33;;
37895;SDS011;23733;53.254;10.430;2023-04-03T05:28:11;9.27;;;4.70;;
37895;SDS011;23733;53.254;10.430;2023-04-03T05:30:37;10.30;;;4.57;;
37895;SDS011;23733;53.254;10.430;2023-04-03T05:33:03;13.07;;;5.20;;
37895;SDS011;23733;53.254;10.430;2023-04-03T05:35:29;9.77;;;4.57;;
37895;SDS011;23733;53.254;10.430;2023-04-03T05:37:55;16.50;;;5.73;;
37895;SDS011;23733;53.254;10.430;2023-04-03T05:40:21;13.13;;;5.17;;
37895;SDS011;23733;53.254;10.430;2023-04-03T05:42:47;12.33;;;5.00;;
37895;SDS011;23733;53.254;10.430;2023-04-03T05:45:13;10.47;;;4.23;;
37895;SDS011;23733;53.254;10.430;2023-04-03T05:47:39;8.90;;;4.03;;
37895;SDS011;23733;53.254;10.430;2023-04-03T05:50:05;8.03;;;4.00;;
37895;SDS011;23733;53.254;10.430;2023-04-03T05:52:33;9.87;;;3.73;;
37895;SDS011;23733;53.254;10.430;2023-04-03T05:55:01;7.50;;;3.10;;
37895;SDS011;23733;53.254;10.430;2023-04-03T05:57:27;7.87;;;3.07;;
37895;SDS011;23733;53.254;10.430;2023-04-03T05:59:53;9.63;;;3.23;;
37895;SDS011;23733;53.254;10.430;2023-04-03T06:02:21;11.30;;;3.13;;
37895;SDS011;23733;53.254;10.430;2023-04-03T06:04:48;10.90;;;3.60;;
37895;SDS011;23733;53.254;10.430;2023-04-03T06:07:16;6.73;;;3.00;;
37895;SDS011;23733;53.254;10.430;2023-04-03T06:09:44;11.60;;;3.30;;
37895;SDS011;23733;53.254;10.430;2023-04-03T06:12:11;8.67;;;2.90;;
37895;SDS011;23733;53.254;10.430;2023-04-03T06:14:37;9.00;;;3.00;;
37895;SDS011;23733;53.254;10.430;2023-04-03T06:17:03;11.77;;;3.03;;
37895;SDS011;23733;53.254;10.430;2023-04-03T06:19:30;6.57;;;2.10;;
37895;SDS011;23733;53.254;10.430;2023-04-03T06:21:56;4.37;;;2.50;;
37895;SDS011;23733;53.254;10.430;2023-04-03T06:24:22;6.20;;;2.20;;
37895;SDS011;23733;53.254;10.430;2023-04-03T06:26:50;7.23;;;2.27;;
37895;SDS011;23733;53.254;10.430;2023-04-03T06:29:18;7.07;;;2.73;;
37895;SDS011;23733;53.254;10.430;2023-04-03T06:31:45;7.90;;;2.50;;
37895;SDS011;23733;53.254;10.430;2023-04-03T06:34:12;9.00;;;2.67;;
37895;SDS011;23733;53.254;10.430;2023-04-03T06:36:39;3.87;;;1.90;;
37895;SDS011;23733;53.254;10.430;2023-04-03T06:39:05;5.80;;;2.23;;
37895;SDS011;23733;53.254;10.430;2023-04-03T06:41:32;6.40;;;2.27;;
37895;SDS011;23733;53.254;10.430;2023-04-03T06:43:58;5.10;;;1.90;;
37895;SDS011;23733;53.254;10.430;2023-04-03T06:46:25;4.83;;;2.10;;
37895;SDS011;23733;53.254;10.430;2023-04-03T06:48:52;11.77;;;3.03;;
37895;SDS011;23733;53.254;10.430;2023-04-03T06:51:20;9.67;;;2.37;;
37895;SDS011;23733;53.254;10.430;2023-04-03T06:53:51;7.47;;;2.87;;
37895;SDS011;23733;53.254;10.430;2023-04-03T06:56:19;6.50;;;2.27;;
37895;SDS011;23733;53.254;10.430;2023-04-03T06:58:45;4.30;;;1.77;;
37895;SDS011;23733;53.254;10.430;2023-04-03T07:01:12;7.10;;;2.03;;
37895;SDS011;23733;53.254;10.430;2023-04-03T07:03:40;3.37;;;1.83;;
37895;SDS011;23733;53.254;10.430;2023-04-03T07:06:06;6.67;;;1.67;;
37895;SDS011;23733;53.254;10.430;2023-04-03T07:08:33;3.57;;;1.40;;
37895;SDS011;23733;53.254;10.430;2023-04-03T07:10:59;4.57;;;1.40;;
37895;SDS011;23733;53.254;10.430;2023-04-03T07:13:26;7.60;;;1.73;;
37895;SDS011;23733;53.254;10.430;2023-04-03T07:15:52;3.20;;;1.70;;
37895;SDS011;23733;53.254;10.430;2023-04-03T07:18:19;3.40;;;1.50;;
37895;SDS011;23733;53.254;10.430;2023-04-03T07:20:45;4.20;;;1.43;;
37895;SDS011;23733;53.254;10.430;2023-04-03T07:23:11;2.63;;;1.50;;
37895;SDS011;23733;53.254;10.430;2023-04-03T07:25:41;4.73;;;1.43;;
37895;SDS011;23733;53.254;10.430;2023-04-03T07:28:09;5.63;;;1.63;;
37895;SDS011;23733;53.254;10.430;2023-04-03T07:30:41;10.87;;;1.47;;
37895;SDS011;23733;53.254;10.430;2023-04-03T07:33:16;7.03;;;1.77;;
37895;SDS011;23733;53.254;10.430;2023-04-03T07:35:43;5.97;;;2.60;;
37895;SDS011;23733;53.254;10.430;2023-04-03T07:38:09;4.93;;;1.33;;
37895;SDS011;23733;53.254;10.430;2023-04-03T07:40:36;7.37;;;1.70;;
37895;SDS011;23733;53.254;10.430;2023-04-03T07:43:03;5.30;;;1.90;;
37895;SDS011;23733;53.254;10.430;2023-04-03T07:45:30;2.60;;;1.20;;
37895;SDS011;23733;53.254;10.430;2023-04-03T07:47:57;4.37;;;1.50;;
37895;SDS011;23733;53.254;10.430;2023-04-03T07:50:23;6.07;;;1.60;;
37895;SDS011;23733;53.254;10.430;2023-04-03T07:52:49;5.03;;;1.47;;
37895;SDS011;23733;53.254;10.430;2023-04-03T07:55:16;3.20;;;1.30;;
37895;SDS011;23733;53.254;10.430;2023-04-03T07:57:42;5.37;;;1.40;;
37895;SDS011;23733;53.254;10.430;2023-04-03T08:00:09;4.13;;;1.63;;
37895;SDS011;23733;53.254;10.430;2023-04-03T08:02:35;6.70;;;1.40;;
37895;SDS011;23733;53.254;10.430;2023-04-03T08:05:02;3.43;;;1.40;;
37895;SDS011;23733;53.254;10.430;2023-04-03T08:07:28;3.70;;;1.43;;
37895;SDS011;23733;53.254;10.430;2023-04-03T08:09:54;3.10;;;1.30;;
37895;SDS011;23733;53.254;10.430;2023-04-03T08:12:20;6.40;;;1.70;;
37895;SDS011;23733;53.254;10.430;2023-04-03T08:14:46;4.00;;;1.30;;
37895;SDS011;23733;53.254;10.430;2023-04-03T08:17:12;7.40;;;1.30;;
37895;SDS011;23733;53.254;10.430;2023-04-03T08:19:39;4.00;;;1.40;;
37895;SDS011;23733;53.254;10.430;2023-04-03T08:22:05;6.57;;;1.37;;
37895;SDS011;23733;53.254;10.430;2023-04-03T08:24:32;2.97;;;1.20;;
37895;SDS011;23733;53.254;10.430;2023-04-03T08:26:58;7.23;;;1.40;;
37895;SDS011;23733;53.254;10.430;2023-04-03T08:29:24;3.13;;;1.00;;
37895;SDS011;23733;53.254;10.430;2023-04-03T08:31:51;3.10;;;0.90;;
37895;SDS011;23733;53.254;10.430;2023-04-03T08:34:17;4.03;;;1.03;;
37895;SDS011;23733;53.254;10.430;2023-04-03T08:36:44;6.30;;;1.20;;
37895;SDS011;23733;53.254;10.430;2023-04-03T08:39:11;4.77;;;1.30;;
37895;SDS011;23733;53.254;10.430;2023-04-03T08:44:21;4.87;;;0.97;;
37895;SDS011;23733;53.254;10.430;2023-04-03T08:49:44;2.23;;;1.10;;
37895;SDS011;23733;53.254;10.430;2023-04-03T08:52:17;4.60;;;1.00;;
37895;SDS011;23733;53.254;10.430;2023-04-03T08:57:20;1.83;;;1.00;;
37895;SDS011;23733;53.254;10.430;2023-04-03T08:59:57;2.27;;;1.20;;
37895;SDS011;23733;53.254;10.430;2023-04-03T09:02:27;5.33;;;1.30;;
37895;SDS011;23733;53.254;10.430;2023-04-03T09:04:58;1.63;;;0.93;;
37895;SDS011;23733;53.254;10.430;2023-04-03T09:07:30;3.73;;;1.10;;
37895;SDS011;23733;53.254;10.430;2023-04-03T09:10:03;4.00;;;1.17;;
37895;SDS011;23733;53.254;10.430;2023-04-03T09:12:32;1.53;;;1.03;;
37895;SDS011;23733;53.254;10.430;2023-04-03T09:15:14;4.63;;;1.37;;
37895;SDS011;23733;53.254;10.430;2023-04-03T09:23:52;2.23;;;1.03;;
37895;SDS011;23733;53.254;10.430;2023-04-03T09:26:36;2.47;;;1.10;;
37895;SDS011;23733;53.254;10.430;2023-04-03T09:29:25;3.00;;;0.90;;
37895;SDS011;23733;53.254;10.430;2023-04-03T09:32:01;2.70;;;1.10;;
37895;SDS011;23733;53.254;10.430;2023-04-03T09:34:37;2.83;;;0.90;;
37895;SDS011;23733;53.254;10.430;2023-04-03T09:37:07;4.00;;;1.20;;
37895;SDS011;23733;53.254;10.430;2023-04-03T09:39:49;3.13;;;1.13;;
37895;SDS011;23733;53.254;10.430;2023-04-03T09:42:24;3.70;;;1.10;;
37895;SDS011;23733;53.254;10.430;2023-04-03T09:44:55;3.13;;;0.87;;
37895;SDS011;23733;53.254;10.430;2023-04-03T09:50:17;6.43;;;1.20;;
37895;SDS011;23733;53.254;10.430;2023-04-03T09:52:49;2.20;;;1.00;;
37895;SDS011;23733;53.254;10.430;2023-04-03T09:55:23;2.30;;;1.17;;
37895;SDS011;23733;53.254;10.430;2023-04-03T09:57:59;3.43;;;1.07;;
37895;SDS011;23733;53.254;10.430;2023-04-03T10:00:28;2.93;;;1.10;;
37895;SDS011;23733;53.254;10.430;2023-04-03T10:02:59;4.77;;;0.93;;
37895;SDS011;23733;53.254;10.430;2023-04-03T10:05:38;2.83;;;1.10;;
37895;SDS011;23733;53.254;10.430;2023-04-03T10:10:39;3.47;;;1.10;;
37895;SDS011;23733;53.254;10.430;2023-04-03T10:13:14;2.43;;;0.80;;
37895;SDS011;23733;53.254;10.430;2023-04-03T10:15:44;2.83;;;0.90;;
37895;SDS011;23733;53.254;10.430;2023-04-03T10:18:19;3.20;;;0.97;;
37895;SDS011;23733;53.254;10.430;2023-04-03T10:20:51;1.77;;;0.83;;
37895;SDS011;23733;53.254;10.430;2023-04-03T10:23:21;1.70;;;0.80;;
37895;SDS011;23733;53.254;10.430;2023-04-03T10:26:17;3.93;;;1.13;;
37895;SDS011;23733;53.254;10.430;2023-04-03T10:29:15;3.33;;;1.07;;
37895;SDS011;23733;53.254;10.430;2023-04-03T10:34:37;3.27;;;1.17;;
37895;SDS011;23733;53.254;10.430;2023-04-03T10:40:05;2.73;;;1.00;;
37895;SDS011;23733;53.254;10.430;2023-04-03T10:43:01;3.40;;;1.30;;
37895;SDS011;23733;53.254;10.430;2023-04-03T10:51:08;3.43;;;1.20;;
37895;SDS011;23733;53.254;10.430;2023-04-03T10:53:55;3.67;;;1.40;;
37895;SDS011;23733;53.254;10.430;2023-04-03T10:56:35;2.87;;;1.17;;
37895;SDS011;23733;53.254;10.430;2023-04-03T10:59:13;2.07;;;1.03;;
37895;SDS011;23733;53.254;10.430;2023-04-03T11:02:00;3.13;;;1.00;;
37895;SDS011;23733;53.254;10.430;2023-04-03T11:04:33;3.23;;;1.43;;
37895;SDS011;23733;53.254;10.430;2023-04-03T11:07:02;3.80;;;1.30;;
37895;SDS011;23733;53.254;10.430;2023-04-03T11:09:37;2.50;;;1.10;;
37895;SDS011;23733;53.254;10.430;2023-04-03T11:12:40;3.90;;;1.03;;
37895;SDS011;23733;53.254;10.430;2023-04-03T11:15:11;1.73;;;1.10;;
37895;SDS011;23733;53.254;10.430;2023-04-03T11:17:58;2.97;;;1.07;;
37895;SDS011;23733;53.254;10.430;2023-04-03T11:20:30;3.17;;;0.97;;
37895;SDS011;23733;53.254;10.430;2023-04-03T11:23:06;3.80;;;1.20;;
37895;SDS011;23733;53.254;10.430;2023-04-03T11:25:47;4.10;;;1.07;;
37895;SDS011;23733;53.254;10.430;2023-04-03T11:28:17;6.40;;;1.20;;
37895;SDS011;23733;53.254;10.430;2023-04-03T11:31:01;2.27;;;1.10;;
37895;SDS011;23733;53.254;10.430;2023-04-03T11:33:58;4.13;;;1.03;;
37895;SDS011;23733;53.254;10.430;2023-04-03T11:36:56;3.60;;;1.13;;
37895;SDS011;23733;53.254;10.430;2023-04-03T11:39:35;4.00;;;1.10;;
37895;SDS011;23733;53.254;10.430;2023-04-03T11:48:03;2.63;;;1.20;;
37895;SDS011;23733;53.254;10.430;2023-04-03T11:50:31;2.60;;;1.03;;
37895;SDS011;23733;53.254;10.430;2023-04-03T12:18:55;3.70;;;1.43;;
37895;SDS011;23733;53.254;10.430;2023-04-03T12:35:12;3.40;;;1.40;;
37895;SDS011;23733;53.254;10.430;2023-04-03T12:45:52;2.20;;;1.33;;
37895;SDS011;23733;53.254;10.430;2023-04-03T12:48:29;3.00;;;1.13;;
37895;SDS011;23733;53.254;10.430;2023-04-03T12:51:02;4.27;;;1.40;;
37895;SDS011;23733;53.254;10.430;2023-04-03T12:53:35;5.40;;;1.27;;
37895;SDS011;23733;53.254;10.430;2023-04-03T13:01:55;7.10;;;1.67;;
37895;SDS011;23733;53.254;10.430;2023-04-03T13:08:12;3.23;;;1.23;;
37895;SDS011;23733;53.254;10.430;2023-04-03T13:10:49;3.53;;;1.30;;
37895;SDS011;23733;53.254;10.430;2023-04-03T13:13:31;4.57;;;1.27;;
37895;SDS011;23733;53.254;10.430;2023-04-03T13:15:57;3.13;;;1.27;;
37895;SDS011;23733;53.254;10.430;2023-04-03T13:18:34;3.67;;;1.20;;
37895;SDS011;23733;53.254;10.430;2023-04-03T13:21:05;3.07;;;1.30;;
37895;SDS011;23733;53.254;10.430;2023-04-03T13:23:43;3.53;;;1.20;;
37895;SDS011;23733;53.254;10.430;2023-04-03T13:26:17;3.33;;;1.20;;
37895;SDS011;23733;53.254;10.430;2023-04-03T13:28:45;2.40;;;1.20;;
37895;SDS011;23733;53.254;10.430;2023-04-03T13:33:51;4.23;;;1.40;;
37895;SDS011;23733;53.254;10.430;2023-04-03T13:36:31;2.77;;;1.13;;
37895;SDS011;23733;53.254;10.430;2023-04-03T13:41:38;4.70;;;1.23;;
37895;SDS011;23733;53.254;10.430;2023-04-03T13:54:57;2.87;;;1.10;;
37895;SDS011;23733;53.254;10.430;2023-04-03T13:57:36;2.53;;;1.10;;
37895;SDS011;23733;53.254;10.430;2023-04-03T14:00:18;5.83;;;1.77;;
37895;SDS011;23733;53.254;10.430;2023-04-03T14:02:54;3.77;;;1.10;;
37895;SDS011;23733;53.254;10.430;2023-04-03T14:05:24;3.97;;;1.20;;
37895;SDS011;23733;53.254;10.430;2023-04-03T14:07:53;3.77;;;1.00;;
37895;SDS011;23733;53.254;10.430;2023-04-03T14:10:21;2.07;;;1.00;;
37895;SDS011;23733;53.254;10.430;2023-04-03T14:12:47;3.67;;;1.30;;
37895;SDS011;23733;53.254;10.430;2023-04-03T14:15:22;2.40;;;1.20;;
37895;SDS011;23733;53.254;10.430;2023-04-03T14:17:52;5.67;;;1.77;;
37895;SDS011;23733;53.254;10.430;2023-04-03T14:20:22;2.47;;;1.10;;
37895;SDS011;23733;53.254;10.430;2023-04-03T14:22:53;2.87;;;1.10;;
37895;SDS011;23733;53.254;10.430;2023-04-03T14:25:20;2.40;;;1.10;;
37895;SDS011;23733;53.254;10.430;2023-04-03T14:27:49;2.57;;;0.93;;
37895;SDS011;23733;53.254;10.430;2023-04-03T14:30:21;3.37;;;1.10;;
37895;SDS011;23733;53.254;10.430;2023-04-03T14:32:52;4.87;;;1.20;;
37895;SDS011;23733;53.254;10.430;2023-04-03T14:35:19;1.97;;;1.10;;
37895;SDS011;23733;53.254;10.430;2023-04-03T14:37:52;1.97;;;0.90;;
37895;SDS011;23733;53.254;10.430;2023-04-03T14:40:20;2.50;;;0.93;;
37895;SDS011;23733;53.254;10.430;2023-04-03T14:42:55;3.03;;;0.90;;
37895;SDS011;23733;53.254;10.430;2023-04-03T14:45:23;3.27;;;1.10;;
37895;SDS011;23733;53.254;10.430;2023-04-03T14:47:50;2.13;;;1.03;;
37895;SDS011;23733;53.254;10.430;2023-04-03T14:50:19;2.37;;;1.00;;
37895;SDS011;23733;53.254;10.430;2023-04-03T14:52:48;3.33;;;0.90;;
37895;SDS011;23733;53.254;10.430;2023-04-03T14:55:16;2.53;;;1.00;;
37895;SDS011;23733;53.254;10.430;2023-04-03T14:57:43;2.57;;;1.10;;
37895;SDS011;23733;53.254;10.430;2023-04-03T15:00:14;3.97;;;1.10;;
37895;SDS011;23733;53.254;10.430;2023-04-03T15:02:41;2.47;;;1.00;;
37895;SDS011;23733;53.254;10.430;2023-04-03T15:05:08;3.67;;;0.93;;
37895;SDS011;23733;53.254;10.430;2023-04-03T15:07:42;1.97;;;1.07;;
37895;SDS011;23733;53.254;10.430;2023-04-03T15:10:16;2.10;;;1.00;;
37895;SDS011;23733;53.254;10.430;2023-04-03T15:12:45;3.93;;;1.13;;
37895;SDS011;23733;53.254;10.430;2023-04-03T15:15:12;1.53;;;1.10;;
37895;SDS011;23733;53.254;10.430;2023-04-03T15:17:39;3.23;;;1.10;;
37895;SDS011;23733;53.254;10.430;2023-04-03T15:20:27;4.93;;;1.27;;
37895;SDS011;23733;53.254;10.430;2023-04-03T15:22:55;4.33;;;1.00;;
37895;SDS011;23733;53.254;10.430;2023-04-03T15:25:25;1.93;;;0.90;;
37895;SDS011;23733;53.254;10.430;2023-04-03T15:28:28;2.53;;;0.97;;
37895;SDS011;23733;53.254;10.430;2023-04-03T15:30:58;1.53;;;1.00;;
37895;SDS011;23733;53.254;10.430;2023-04-03T15:33:24;2.57;;;0.90;;
37895;SDS011;23733;53.254;10.430;2023-04-03T15:35:51;4.97;;;1.10;;
37895;SDS011;23733;53.254;10.430;2023-04-03T15:38:17;1.97;;;1.00;;
37895;SDS011;23733;53.254;10.430;2023-04-03T15:40:46;3.73;;;0.97;;
37895;SDS011;23733;53.254;10.430;2023-04-03T15:43:15;1.57;;;0.90;;
37895;SDS011;23733;53.254;10.430;2023-04-03T15:45:41;3.60;;;1.00;;
37895;SDS011;23733;53.254;10.430;2023-04-03T15:48:08;5.33;;;1.00;;
37895;SDS011;23733;53.254;10.430;2023-04-03T15:50:40;1.20;;;0.80;;
37895;SDS011;23733;53.254;10.430;2023-04-03T15:53:06;2.30;;;0.93;;
37895;SDS011;23733;53.254;10.430;2023-04-03T15:55:33;4.20;;;0.97;;
37895;SDS011;23733;53.254;10.430;2023-04-03T15:58:03;2.30;;;0.97;;
37895;SDS011;23733;53.254;10.430;2023-04-03T16:00:32;3.77;;;1.13;;
37895;SDS011;23733;53.254;10.430;2023-04-03T16:03:04;1.47;;;0.73;;
37895;SDS011;23733;53.254;10.430;2023-04-03T16:05:37;3.00;;;1.10;;
37895;SDS011;23733;53.254;10.430;2023-04-03T16:08:09;4.70;;;1.30;;
37895;SDS011;23733;53.254;10.430;2023-04-03T16:10:44;2.43;;;1.10;;
37895;SDS011;23733;53.254;10.430;2023-04-03T16:13:19;1.63;;;1.10;;
37895;SDS011;23733;53.254;10.430;2023-04-03T16:15:45;4.30;;;1.40;;
37895;SDS011;23733;53.254;10.430;2023-04-03T16:18:15;3.83;;;1.13;;
37895;SDS011;23733;53.254;10.430;2023-04-03T16:20:49;2.07;;;0.90;;
37895;SDS011;23733;53.254;10.430;2023-04-03T16:23:29;4.37;;;1.40;;
37895;SDS011;23733;53.254;10.430;2023-04-03T16:25:55;3.37;;;1.17;;
37895;SDS011;23733;53.254;10.430;2023-04-03T16:28:21;4.77;;;1.30;;
37895;SDS011;23733;53.254;10.430;2023-04-03T16:30:47;2.77;;;1.20;;
37895;SDS011;23733;53.254;10.430;2023-04-03T16:33:14;4.13;;;1.00;;
37895;SDS011;23733;53.254;10.430;2023-04-03T16:35:47;4.20;;;1.70;;
37895;SDS011;23733;53.254;10.430;2023-04-03T16:38:16;4.00;;;1.30;;
37895;SDS011;23733;53.254;10.430;2023-04-03T16:40:51;3.63;;;1.57;;